Arion, Iowa
Current Conditions -  °F | °C
As of 6:15 AM on Monday 26 Jan 2015 (Local Time) from KDNS Reporting Station
Scattered Clouds Scattered Clouds  
Wind Chill: 24°   Ceiling: Unl
Heat Index: 32°   Visibility: 10mi
Dew Point: 32°   Wind: 9mph
Humidity: 100%   Direction: 210°SSW
Pressure: 29.83"   Gusts: 15mph
Location:  41.95°N, 95.46°W
Report Text: KDNS 261215Z AUTO 21008G13KT 10SM SCT120 M00/M00 A2983 RMK AO2
Loading
Personal Weather Stations






























Interactive Weather Map New forecast layout! Learn more

10-Day Weather Forecast

Advertisements
Track Severe Weather on mobile